Strona główna
METAR-TAF:

METAR-TAF

Lotnisko :

Concord, New Hampshire, Stany Zjednoczone

Szerokość geograficzna: 43-11-43N, Długość geograficzna: 071-30-04W, wysokość: 105 m

Aktualna obserwacja pogody

Raport powstał 13 minut temu, godzina 08:51 UTC
Wiatr 3 kt od północno-północny zachód
Temperatura 16°C
Wilgotność 94%
Ciśnienie 1021 hPa
Widzialność: 16.1 km
Zachmurzenie całkowite na wysokości 1300 ft

METAR: KCON 200851Z AUTO 33003KT 10SM OVC013 16/15 A3016 RMK AO2 SLP211 T01610150 55000

czas: 05:04 (09:04 UTC)

Prognoza

Raport powstał 3 godziny i 44 minut temu, godzina 05:20 UTC
Prognoza ważna od 20 godzina 06 UTC do 21 godzina 06 UTC
Wiatr kt od północ
Widzialność: 10 km
Przerywane chmury na wysokości 5000 ft
Zachmurzenie całkowite na wysokości 10000 ft
Przejściowo
od 20 godzina 07 UTC do 20 godzina 11 UTC
Przerywane chmury na wysokości 1500 ft
Od 21 godzina 0000 UTC
Wiatr kt od północ
Widzialność: 10 km
bezchmurnie

TAF: KCON 200520Z 2006/2106 00000KT P6SM BKN050 OVC100 TEMPO 2007/2011 BKN015 FM210000 00000KT P6SM SKC

Obserwacja i prognoza pogody dla ponad 4000 lotnisk (raport METAR i TAF).

Dostępne stacje oznaczono żółtymi i czerwonymi punktami na mapie.

Najedź kursorem aby zobaczyć nazwę stacji.

Kliknij aby zobaczyć obserwacje i prognozy pogody.

Aby zmienić mapę: kliknij na zielony przycisk z czarnym krzyżykiem, aby powiększyć; na zielony przycisk z myślnikiem, aby pomniejszyć; na zielone strzałki, aby przejść do map sąsiednich.


METAR-TAF: